^^
B2 Weather Station Historical Data
 
Daily Summary for January 23, 2018 Units:  English    Metric   Both
« Previous Day
Next Day »
Daily Weekly Monthly Yearly Custom
  Current: High: Low: Average:
Temperature: 30.3 °F 39.5 °F 30.2 °F 33.8 °F
Dew Point: 25.8 °F 34.5 °F 25.4 °F 30.7 °F
Humidity: 83 % 94 % 81 % 89 %
Wind Speed: 11.5 mph 18.4 mph 0.0 mph 10 mph
Wind Gust: 11.5 mph 18.4 mph - -
Wind:West - - West
Pressure: 30.02 in 30.02 in 29.53 in -
Precipitation: 0.02 in      
Historical Graphs
 
 
Tabular Data for January 23, 2018
Time Temperature Dew Point Pressure Wind Wind Speed Wind Gust Humidity Rainfall Rate (Hourly) solar Conditions
00:04 39.4 °F 34.1 °F 29.53 in SW 8.1 mph 8.1 mph 81 % 0.00 in 0.0 W/m2 RA
00:14 39.5 °F 34.5 °F 29.53 in SW 1.2 mph   82 % 0.00 in 0.0 W/m2 OVC
00:19 39.4 °F 34.1 °F 29.53 in SW 4.6 mph 4.6 mph 81 % 0.00 in 0.0 W/m2 OVC
00:24 39.4 °F 34.4 °F 29.53 in WSW 4.6 mph 4.6 mph 82 % 0.00 in 0.0 W/m2 OVC
00:29 39.3 °F 34.3 °F 29.53 in SW 5.8 mph 5.8 mph 82 % 0.00 in 0.0 W/m2 OVC
00:34 39.3 °F 34.3 °F 29.53 in WSW 5.8 mph 5.8 mph 82 % 0.00 in 0.0 W/m2 OVC
00:39 39.2 °F 34.2 °F 29.53 in WSW 5.8 mph 5.8 mph 82 % 0.00 in 0.0 W/m2 OVC
00:44 39.1 °F 34.1 °F 29.53 in SW 4.6 mph 4.6 mph 82 % 0.00 in 0.0 W/m2 OVC
00:49 39.0 °F 34.3 °F 29.53 in SW 1.2 mph   83 % 0.00 in 0.0 W/m2 OVC
00:54 38.8 °F 34.1 °F 29.53 in SSW 2.3 mph 2.3 mph 83 % 0.00 in 0.0 W/m2 OVC
00:59 38.7 °F 34.3 °F 29.53 in SSW 7.0 mph 7.0 mph 84 % 0.00 in 0.0 W/m2 OVC
01:09 38.2 °F 34.1 °F 29.53 in SSW 4.0 mph 4.0 mph 85 % 0.00 in 0.0 W/m2 OVC
01:19 37.9 °F 33.8 °F 29.54 in SW 3.5 mph   85 % 0.00 in 0.0 W/m2 OVC
01:24 37.8 °F 34.0 °F 29.54 in Calm     86 % 0.00 in 0.0 W/m2 OVC
01:29 37.8 °F 34.0 °F 29.54 in SSW 4.6 mph 4.6 mph 86 % 0.00 in 0.0 W/m2 OVC
01:34 37.8 °F 33.7 °F 29.54 in WSW 4.6 mph 4.6 mph 85 % 0.00 in 0.0 W/m2 OVC
01:39 37.8 °F 33.7 °F 29.54 in WSW 3.5 mph 3.5 mph 85 % 0.00 in 0.0 W/m2 OVC
01:44 37.8 °F 33.7 °F 29.54 in SSW 2.3 mph   85 % 0.00 in 0.0 W/m2 OVC
01:49 37.7 °F 33.6 °F 29.54 in SW 3.5 mph 3.5 mph 85 % 0.00 in 0.0 W/m2 OVC
01:54 37.6 °F 33.8 °F 29.54 in SSW 3.5 mph 3.5 mph 86 % 0.00 in 0.0 W/m2 OVC
02:04 37.3 °F 33.5 °F 29.54 in SSW 1.2 mph 1.2 mph 86 % 0.00 in 0.0 W/m2 OVC
02:09 37.0 °F 33.5 °F 29.54 in SW 4.6 mph 4.6 mph 87 % 0.00 in 0.0 W/m2 OVC
02:14 36.8 °F 33.3 °F 29.54 in SW 11.5 mph 11.5 mph 87 % 0.00 in 0.0 W/m2 OVC
02:19 36.6 °F 33.4 °F 29.55 in WSW 9.2 mph 9.2 mph 88 % 0.00 in 0.0 W/m2 OVC
02:24 36.4 °F 33.5 °F 29.55 in WSW 12.7 mph 12.7 mph 89 % 0.00 in 0.0 W/m2 OVC
02:29 36.3 °F 33.4 °F 29.55 in SW 12.7 mph 12.7 mph 89 % 0.00 in 0.0 W/m2 OVC
02:34 36.4 °F 33.7 °F 29.55 in WSW 16.1 mph 16.1 mph 90 % 0.00 in 0.0 W/m2 BKN
02:39 36.2 °F 33.3 °F 29.55 in WSW 8.0 mph 8.0 mph 89 % 0.00 in 0.0 W/m2 BKN
02:44 36.1 °F 33.5 °F 29.56 in WSW 11.5 mph 11.5 mph 90 % 0.00 in 0.0 W/m2 BKN
02:49 36.2 °F 33.5 °F 29.56 in SW 13.8 mph 13.8 mph 90 % 0.00 in 0.0 W/m2 SCT
02:54 36.1 °F 33.5 °F 29.56 in SW 13.8 mph 13.8 mph 90 % 0.00 in 0.0 W/m2 SCT
03:09 35.8 °F 33.4 °F 29.57 in WSW 10.4 mph 10.4 mph 91 % 0.00 in 0.0 W/m2 SCT
03:14 35.8 °F 33.4 °F 29.57 in WSW 10.4 mph 10.4 mph 91 % 0.00 in 0.0 W/m2 SCT
03:19 35.8 °F 33.4 °F 29.57 in WSW 11.5 mph 11.5 mph 91 % 0.00 in 0.0 W/m2 SCT
03:24 35.7 °F 33.3 °F 29.57 in SW 16.1 mph 16.1 mph 91 % 0.00 in 0.0 W/m2 SCT
03:29 35.7 °F 33.3 °F 29.57 in SW 12.7 mph 12.7 mph 91 % 0.00 in 0.0 W/m2 SCT
03:34 35.6 °F 33.2 °F 29.57 in West 11.5 mph 11.5 mph 91 % 0.00 in 0.0 W/m2 OVC
03:39 35.6 °F 33.2 °F 29.58 in SW 11.5 mph 11.5 mph 91 % 0.00 in 0.0 W/m2 OVC
03:44 35.5 °F 33.4 °F 29.58 in WSW 11.5 mph 11.5 mph 92 % 0.00 in 0.0 W/m2 OVC
03:49 35.5 °F 33.4 °F 29.58 in WSW 9.2 mph 9.2 mph 92 % 0.00 in 0.0 W/m2 OVC
03:54 35.4 °F 33.3 °F 29.58 in SW 11.5 mph 11.5 mph 92 % 0.00 in 0.0 W/m2 OVC
03:59 35.5 °F 33.4 °F 29.58 in WSW 7.0 mph 7.0 mph 92 % 0.00 in 0.0 W/m2 OVC
04:04 35.4 °F 33.3 °F 29.59 in WSW 10.4 mph 10.4 mph 92 % 0.00 in 0.0 W/m2 OVC
04:09 35.4 °F 33.3 °F 29.59 in WSW 10.4 mph 10.4 mph 92 % 0.00 in 0.0 W/m2 OVC
04:19 35.5 °F 33.7 °F 29.59 in West 9.2 mph 9.2 mph 93 % 0.00 in 0.0 W/m2 OVC
04:24 35.4 °F 33.6 °F 29.59 in WSW 11.5 mph 11.5 mph 93 % 0.00 in 0.0 W/m2 OVC
04:34 35.5 °F 33.7 °F 29.60 in WSW 8.1 mph 8.1 mph 93 % 0.00 in 0.0 W/m2 OVC
04:39 35.4 °F 33.6 °F 29.60 in WSW 9.2 mph 9.2 mph 93 % 0.00 in 0.0 W/m2 OVC
04:54 35.5 °F 33.7 °F 29.60 in WSW 9.0 mph 9.0 mph 93 % 0.00 in 0.0 W/m2 OVC
04:59 35.4 °F 33.6 °F 29.60 in WSW 8.1 mph 8.1 mph 93 % 0.00 in 0.0 W/m2 OVC
05:04 35.3 °F 33.5 °F 29.61 in WSW 11.5 mph 11.5 mph 93 % 0.00 in 0.0 W/m2 OVC
05:09 35.3 °F 33.5 °F 29.61 in WNW 8.1 mph 8.1 mph 93 % 0.00 in 0.0 W/m2 OVC
05:19 35.3 °F 33.5 °F 29.61 in WSW 9.2 mph 9.2 mph 93 % 0.00 in 0.0 W/m2 OVC
05:24 35.2 °F 33.4 °F 29.61 in SW 10.4 mph 10.4 mph 93 % 0.00 in 0.0 W/m2 OVC
05:29 35.2 °F 33.4 °F 29.62 in West 3.0 mph 3.0 mph 93 % 0.00 in 0.0 W/m2 OVC
05:34 35.1 °F 33.5 °F 29.62 in WSW 5.8 mph 5.8 mph 94 % 0.00 in 0.0 W/m2 OVC
05:39 35.1 °F 33.5 °F 29.62 in SW 1.2 mph 1.2 mph 94 % 0.01 in 0.0 W/m2 RA
05:44 35.1 °F 33.5 °F 29.62 in WSW 2.3 mph 2.3 mph 94 % 0.01 in 0.0 W/m2 RA
05:49 35.0 °F 33.4 °F 29.62 in WSW 8.1 mph 8.1 mph 94 % 0.01 in 0.0 W/m2 OVC
05:54 35.0 °F 33.4 °F 29.63 in West 9.2 mph 9.2 mph 94 % 0.01 in 0.0 W/m2 OVC
05:59 35.0 °F 33.4 °F 29.63 in WSW 1.2 mph 2.4 mph 94 % 0.01 in 0.0 W/m2 OVC
06:04 35.0 °F 33.4 °F 29.63 in West 6.9 mph 6.9 mph 94 % 0.01 in 0.0 W/m2 -DZ
06:09 35.0 °F 33.4 °F 29.64 in West 10.4 mph 10.4 mph 94 % 0.01 in 0.0 W/m2 -DZ
06:14 35.0 °F 33.4 °F 29.64 in West 11.5 mph 11.5 mph 94 % 0.01 in 0.0 W/m2 -DZ
06:24 34.9 °F 33.3 °F 29.65 in West 11.5 mph 11.5 mph 94 % 0.01 in 0.0 W/m2 -DZ
06:29 34.8 °F 33.2 °F 29.66 in West 12.7 mph 12.7 mph 94 % 0.01 in 0.0 W/m2 -DZ
06:39 34.5 °F 33.0 °F 29.66 in WNW 12.7 mph 12.7 mph 94 % 0.01 in 0.0 W/m2 -DZ
06:44 33.9 °F 32.4 °F 29.67 in WNW 10.4 mph 10.4 mph 94 % 0.01 in 0.0 W/m2 OVC
06:54 33.1 °F 31.6 °F 29.67 in NW 11.0 mph 11.0 mph 94 % 0.01 in 0.0 W/m2 OVC
07:14 32.5 °F 31.0 °F 29.69 in NW 12.0 mph 12.0 mph 94 % 0.01 in 0.0 W/m2 OVC
07:19 32.5 °F 31.0 °F 29.69 in NNW 11.0 mph 11.0 mph 94 % 0.01 in 0.0 W/m2 OVC
07:24 32.4 °F 30.9 °F 29.70 in NW 9.2 mph 9.2 mph 94 % 0.01 in 7.0 W/m2 OVC
07:29 32.4 °F 30.9 °F 29.70 in NW 11.5 mph 11.5 mph 94 % 0.01 in 12.0 W/m2 OVC
07:35 32.3 °F 30.8 °F 29.71 in WNW 11.5 mph 11.5 mph 94 % 0.00 in 16.0 W/m2 -DZ
07:40 32.3 °F 30.8 °F 29.71 in NW 9.2 mph 9.2 mph 94 % 0.00 in 21.0 W/m2 -DZ
07:45 32.4 °F 30.9 °F 29.71 in WNW 7.0 mph 7.0 mph 94 % 0.00 in 28.0 W/m2 -DZ
07:50 32.4 °F 30.9 °F 29.72 in NW 9.2 mph 9.2 mph 94 % 0.00 in 35.0 W/m2 OVC
07:55 32.4 °F 30.9 °F 29.72 in NW 8.1 mph 8.1 mph 94 % 0.00 in 26.0 W/m2 OVC
08:00 32.4 °F 30.9 °F 29.73 in WNW 8.1 mph 8.1 mph 94 % 0.00 in 12.0 W/m2 OVC
08:05 32.4 °F 30.9 °F 29.73 in West 8.1 mph 8.1 mph 94 % 0.00 in 14.0 W/m2 OVC
08:10 32.4 °F 30.9 °F 29.73 in WNW 1.2 mph   94 % 0.00 in 16.0 W/m2 OVC
08:15 32.5 °F 31.0 °F 29.74 in WNW 11.5 mph 11.5 mph 94 % 0.00 in 12.0 W/m2 OVC
08:20 32.5 °F 31.0 °F 29.74 in WNW 9.2 mph 9.2 mph 94 % 0.00 in 12.0 W/m2 OVC
08:25 32.5 °F 31.0 °F 29.74 in WNW 11.5 mph 11.5 mph 94 % 0.00 in 11.0 W/m2 OVC
08:30 32.5 °F 31.0 °F 29.75 in WNW 11.5 mph 11.5 mph 94 % 0.00 in 9.0 W/m2 OVC
08:35 32.5 °F 31.0 °F 29.75 in NW 8.1 mph 8.1 mph 94 % 0.00 in 11.0 W/m2 OVC
08:40 32.5 °F 31.0 °F 29.76 in NW 9.2 mph 9.2 mph 94 % 0.00 in 14.0 W/m2 OVC
08:50 32.4 °F 30.6 °F 29.77 in NW 18.4 mph 18.4 mph 93 % 0.00 in 56.0 W/m2 OVC
08:55 32.3 °F 30.2 °F 29.77 in NW 16.1 mph 16.1 mph 92 % 0.00 in 62.0 W/m2 OVC
09:00 32.3 °F 29.7 °F 29.77 in NNW 17.3 mph 17.3 mph 90 % 0.00 in 77.0 W/m2 OVC
09:05 32.3 °F 29.7 °F 29.77 in WNW 16.1 mph 16.1 mph 90 % 0.00 in 90.0 W/m2 OVC
09:10 32.4 °F 29.5 °F 29.78 in NW 11.5 mph 11.5 mph 89 % 0.00 in 111.0 W/m2 OVC
09:15 32.5 °F 29.9 °F 29.78 in NW 13.0 mph 13.0 mph 90 % 0.00 in 120.0 W/m2 OVC
09:20 32.5 °F 29.6 °F 29.79 in NNW 12.7 mph 12.7 mph 89 % 0.00 in 105.0 W/m2 OVC
09:25 32.6 °F 29.7 °F 29.79 in NW 12.7 mph 12.7 mph 89 % 0.00 in 118.0 W/m2 OVC
09:30 32.7 °F 29.8 °F 29.80 in Calm     89 % 0.00 in 84.0 W/m2 OVC
09:35 32.7 °F 29.8 °F 29.80 in NW 10.4 mph 10.4 mph 89 % 0.00 in 49.0 W/m2 OVC
09:40 32.6 °F 29.7 °F 29.80 in WNW 10.4 mph 10.4 mph 89 % 0.00 in 58.0 W/m2 OVC
09:45 32.7 °F 29.8 °F 29.81 in NW 11.5 mph 11.5 mph 89 % 0.00 in 70.0 W/m2 OVC
09:50 32.8 °F 30.2 °F 29.81 in NW 13.8 mph 13.8 mph 90 % 0.00 in 56.0 W/m2 OVC
09:55 32.7 °F 29.8 °F 29.81 in NW 6.9 mph 6.9 mph 89 % 0.00 in 70.0 W/m2 OVC
10:00 32.8 °F 29.9 °F 29.82 in NW 12.7 mph 12.7 mph 89 % 0.00 in 79.0 W/m2 OVC
10:10 32.9 °F 30.0 °F 29.83 in WNW 9.2 mph 9.2 mph 89 % 0.00 in 42.0 W/m2 OVC
10:15 32.8 °F 29.9 °F 29.83 in NW 11.5 mph 11.5 mph 89 % 0.00 in 42.0 W/m2 OVC
10:20 32.8 °F 29.9 °F 29.83 in WNW 5.8 mph 5.8 mph 89 % 0.00 in 39.0 W/m2 OVC
10:25 32.7 °F 29.8 °F 29.83 in WNW 10.4 mph 10.4 mph 89 % 0.00 in 46.0 W/m2 OVC
10:30 32.7 °F 29.8 °F 29.83 in WSW 9.2 mph 9.2 mph 89 % 0.00 in 47.0 W/m2 OVC
10:35 32.7 °F 29.5 °F 29.83 in WNW 10.4 mph 10.4 mph 88 % 0.00 in 46.0 W/m2 OVC
10:40 32.7 °F 29.8 °F 29.84 in Calm     89 % 0.00 in 42.0 W/m2 OVC
10:45 32.7 °F 29.8 °F 29.84 in NW 11.5 mph 11.5 mph 89 % 0.00 in 47.0 W/m2 OVC
10:55 32.7 °F 29.8 °F 29.84 in Calm     89 % 0.00 in 46.0 W/m2 OVC
11:00 32.7 °F 29.8 °F 29.85 in WNW 11.5 mph 11.5 mph 89 % 0.00 in 40.0 W/m2 OVC
11:05 32.7 °F 29.8 °F 29.85 in NNW 8.0 mph 8.0 mph 89 % 0.00 in 40.0 W/m2 OVC
11:10 32.7 °F 29.8 °F 29.85 in WNW 10.4 mph 10.4 mph 89 % 0.00 in 42.0 W/m2 OVC
11:15 32.6 °F 29.4 °F 29.85 in WNW 11.5 mph 11.5 mph 88 % 0.00 in 40.0 W/m2 OVC
11:20 32.6 °F 29.7 °F 29.85 in WNW 11.5 mph 11.5 mph 89 % 0.00 in 42.0 W/m2 OVC
11:25 32.6 °F 29.7 °F 29.85 in West 5.8 mph 5.8 mph 89 % 0.00 in 40.0 W/m2 OVC
11:30 32.5 °F 29.6 °F 29.85 in NW 15.0 mph 15.0 mph 89 % 0.00 in 46.0 W/m2 OVC
11:35 32.4 °F 29.5 °F 29.86 in West 9.2 mph 9.2 mph 89 % 0.00 in 44.0 W/m2 OVC
11:40 32.2 °F 29.0 °F 29.86 in NW 13.8 mph 13.8 mph 88 % 0.00 in 44.0 W/m2 OVC
11:45 32.0 °F 28.8 °F 29.86 in NW 17.3 mph 17.3 mph 88 % 0.00 in 47.0 W/m2 OVC
11:55 31.9 °F 28.8 °F 29.87 in WNW 16.1 mph 16.1 mph 88 % 0.00 in 62.0 W/m2 OVC
12:00 31.8 °F 28.7 °F 29.87 in WNW 16.0 mph 16.0 mph 88 % 0.00 in 62.0 W/m2 OVC
12:05 31.9 °F 28.8 °F 29.87 in West 16.1 mph 16.1 mph 88 % 0.00 in 54.0 W/m2 OVC
12:15 31.8 °F 28.1 °F 29.88 in NW 12.7 mph 12.7 mph 86 % 0.00 in 53.0 W/m2 OVC
12:25 31.7 °F 28.0 °F 29.88 in West 14.0 mph 14.0 mph 86 % 0.00 in 74.0 W/m2 OVC
12:27 31.7 °F 28.0 °F 29.88 in NW 12.7 mph 12.7 mph 86 % 0.00 in 76.0 W/m2 OVC
12:32 31.8 °F 28.1 °F 29.89 in West 10.4 mph 10.4 mph 86 % 0.00 in 72.0 W/m2 OVC
12:37 31.7 °F 27.7 °F 29.89 in WNW 12.0 mph 12.0 mph 85 % 0.00 in 77.0 W/m2 OVC
12:42 31.7 °F 27.7 °F 29.89 in West 15.0 mph 15.0 mph 85 % 0.00 in 83.0 W/m2 OVC
12:47 31.7 °F 27.7 °F 29.89 in NW 16.1 mph 16.1 mph 85 % 0.00 in 65.0 W/m2 OVC
12:57 31.5 °F 27.5 °F 29.89 in West 15.0 mph 15.0 mph 85 % 0.00 in 69.0 W/m2 OVC
13:02 31.3 °F 27.3 °F 29.90 in NW 11.5 mph 11.5 mph 85 % 0.00 in 60.0 W/m2 OVC
13:07 31.2 °F 27.2 °F 29.90 in NW 9.2 mph 9.2 mph 85 % 0.00 in 56.0 W/m2 OVC
13:17 31.3 °F 27.3 °F 29.90 in West 12.7 mph 12.7 mph 85 % 0.00 in 98.0 W/m2 OVC
13:22 31.4 °F 27.4 °F 29.90 in West 11.5 mph 11.5 mph 85 % 0.00 in 98.0 W/m2 OVC
13:27 31.4 °F 26.8 °F 29.91 in WNW 12.7 mph 12.7 mph 83 % 0.00 in 74.0 W/m2 OVC
13:32 31.4 °F 27.1 °F 29.91 in NW 10.4 mph 10.4 mph 84 % 0.00 in 70.0 W/m2 OVC
13:37 31.4 °F 27.1 °F 29.92 in West 17.3 mph 17.3 mph 84 % 0.00 in 63.0 W/m2 OVC
13:42 31.3 °F 27.3 °F 29.92 in NW 16.1 mph 16.1 mph 85 % 0.00 in 141.0 W/m2 OVC
13:47 31.3 °F 27.0 °F 29.92 in WNW 11.5 mph 11.5 mph 84 % 0.00 in 79.0 W/m2 OVC
13:57 31.1 °F 26.8 °F 29.93 in WNW 17.3 mph 17.3 mph 84 % 0.00 in 58.0 W/m2 OVC
14:02 31.0 °F 26.7 °F 29.93 in NW 16.1 mph 16.1 mph 84 % 0.00 in 42.0 W/m2 OVC
14:07 30.9 °F 26.6 °F 29.94 in West 15.0 mph 15.0 mph 84 % 0.00 in 33.0 W/m2 OVC
14:12 30.8 °F 26.8 °F 29.94 in NW 13.8 mph 13.8 mph 85 % 0.00 in 30.0 W/m2 OVC
14:22 30.6 °F 26.3 °F 29.95 in WNW 13.8 mph 13.8 mph 84 % 0.00 in 25.0 W/m2 OVC
14:27 30.6 °F 26.3 °F 29.95 in NW 12.7 mph 12.7 mph 84 % 0.00 in 26.0 W/m2 OVC
14:32 30.5 °F 26.2 °F 29.96 in WNW 11.5 mph 11.5 mph 84 % 0.00 in 26.0 W/m2 OVC
14:37 30.5 °F 26.0 °F 29.96 in WNW 12.7 mph 12.7 mph 83 % 0.00 in 26.0 W/m2 OVC
14:42 30.5 °F 26.0 °F 29.97 in NW 15.0 mph 15.0 mph 83 % 0.00 in 23.0 W/m2 OVC
14:47 30.4 °F 26.1 °F 29.98 in NW 16.1 mph 16.1 mph 84 % 0.00 in 21.0 W/m2 OVC
14:52 30.3 °F 25.8 °F 29.98 in NW 15.0 mph 15.0 mph 83 % 0.00 in 33.0 W/m2 OVC
14:57 30.3 °F 25.8 °F 29.98 in NW 11.5 mph 11.5 mph 83 % 0.00 in 46.0 W/m2 OVC
15:02 30.3 °F 26.0 °F 29.98 in NW 10.4 mph 10.4 mph 84 % 0.00 in 37.0 W/m2 OVC
15:07 30.3 °F 25.8 °F 29.99 in NW 11.5 mph 11.5 mph 83 % 0.00 in 35.0 W/m2 OVC
15:12 30.2 °F 25.4 °F 30.00 in NW 16.1 mph 16.1 mph 82 % 0.00 in 32.0 W/m2 OVC
15:17 30.3 °F 25.8 °F 30.00 in NW 8.1 mph 8.1 mph 83 % 0.00 in 26.0 W/m2 OVC
15:22 30.3 °F 25.8 °F 30.00 in NW 9.2 mph 9.2 mph 83 % 0.00 in 16.0 W/m2 OVC
15:27 30.3 °F 25.8 °F 30.01 in NW 9.2 mph 9.2 mph 83 % 0.00 in 9.0 W/m2 OVC
15:32 30.3 °F 25.8 °F 30.01 in WNW 9.2 mph 9.2 mph 83 % 0.00 in 7.0 W/m2 OVC
15:37 30.3 °F 25.5 °F 30.01 in NNW 11.0 mph 11.0 mph 82 % 0.00 in 14.0 W/m2 OVC
15:43 30.3 °F 25.8 °F 30.02 in WNW 5.8 mph 5.8 mph 83 % 0.00 in 19.0 W/m2 OVC
15:48 30.3 °F 25.8 °F 30.02 in West 11.5 mph 11.5 mph 83 % 0.00 in 18.0 W/m2 OVC
Bourbonnais, Illinois, USA
Compliments of Weather Underground - 2.75 mb